Aviation Digital Data Service (ADDS)

Output produced by METARs form (0348 UTC 18 June 2019)
found at http://www.aviationweather.gov/metar/data/
 
Forecast for: ZYTX (SHENYANG/TAOKIAN, CN)
Text: TAF ZYTX 171908Z 1800/1824 22003MPS 6000 -SHRA FEW030CB BKN040 TX25/1806Z TN19/1820Z
Forecast period: 0000 to 0800 UTC 18 June 2019
Forecast type: FROM: standard forecast or significant change
Winds: from the SW (220 degrees) at 7 MPH (6 knots; 3.1 m/s)
Visibility: 4 miles (6 km)
Ceiling: 4000 feet AGL
Clouds: few clouds at 3000 feet AGL
broken clouds at 4000 feet AGL
Weather: -SHRA  (light rain showers)
Text: TEMPO 1801/1804 -TSRA SCT026CB OVC030
Forecast period: 0100 to 0400 UTC 18 June 2019
Forecast type: TEMPORARY: The following changes expected for less than half the time period
Visibility: missing
Ceiling: 3000 feet AGL
Clouds: scattered clouds at 2600 feet AGL
overcast cloud deck at 3000 feet AGL
Weather: -TSRA  (light rain associated with thunderstorm(s))
Text: BECMG 1808/1809 32003MPS CAVOK
Forecast period: 0800 UTC 18 June 2019 to 0000 UTC 19 June 2019
Forecast type: BECOMING: Conditions expected to become as follows by 0900 UTC 18 June 2019
Winds: from the NW (320 degrees) at 7 MPH (6 knots; 3.1 m/s)
Visibility: 6 or more miles 10+ km)
Ceiling: unknown
Clouds: missing
Weather: NSW  (no significant weather)